Terminal Aerodrome Forecast
Issued by NWS

Home | Current Version | Previous Version | Text Only | Print | Product List | Glossary On
Versions: 1 2 3 4 5 6 7 8 9 10 11 12
000
FTUS43 KUNR 011100
TAFGCC
TAF
KGCC 011120Z 0112/0212 20013KT P6SM SCT250
     FM011800 34008KT P6SM SCT100 SCT250
     FM020400 25005KT P6SM SCT250=

USA.gov is the U.S. government's official web portal to all federal, state and local government web resources and services.